createdAt,value
2022-09-30T05:01:49.853Z,0.57
2022-09-30T05:06:53.475Z,0.70
2022-09-30T05:11:56.953Z,0.50
2022-09-30T05:17:02.115Z,0.70
2022-09-30T05:22:05.640Z,0.70
2022-09-30T05:27:09.351Z,0.57
2022-09-30T05:32:14.218Z,0.60
2022-09-30T05:37:17.755Z,0.57
2022-09-30T05:42:21.403Z,0.50
2022-09-30T05:47:26.393Z,0.50
2022-09-30T05:52:30.719Z,0.68
2022-09-30T05:57:34.238Z,0.85
2022-09-30T06:02:39.190Z,0.70
2022-09-30T06:07:42.741Z,0.73
2022-09-30T06:12:46.298Z,0.63
2022-09-30T06:17:55.003Z,0.43
2022-09-30T06:23:00.702Z,1.08
2022-09-30T06:28:04.206Z,1.92
2022-09-30T06:33:09.106Z,0.82
2022-09-30T06:38:15.726Z,1.10
2022-09-30T06:43:20.858Z,1.00
2022-09-30T06:48:36.845Z,1.60
2022-09-30T06:53:43.280Z,1.12
2022-09-30T06:58:47.186Z,1.50
2022-09-30T07:03:55.716Z,1.58
2022-09-30T07:08:59.236Z,1.40
2022-09-30T07:14:04.259Z,0.80
2022-09-30T07:19:10.261Z,0.90
2022-09-30T07:24:13.930Z,1.10
2022-09-30T07:29:19.229Z,1.03
2022-09-30T07:34:24.198Z,0.77
2022-09-30T07:39:27.706Z,0.80
2022-09-30T07:44:31.720Z,0.95
2022-09-30T07:49:37.211Z,0.70
2022-09-30T07:54:45.313Z,0.52
2022-09-30T07:59:51.687Z,0.55
2022-09-30T08:04:56.641Z,0.70
2022-09-30T08:10:00.630Z,0.60
2022-09-30T08:15:06.139Z,0.80
2022-09-30T08:20:14.288Z,0.70
2022-09-30T08:25:19.259Z,0.90
2022-09-30T08:30:22.988Z,0.70
2022-09-30T08:35:28.112Z,0.50
2022-09-30T08:40:34.420Z,0.60
2022-09-30T08:45:44.838Z,0.60
2022-09-30T08:51:00.906Z,0.47
2022-09-30T08:56:05.574Z,0.50
2022-09-30T09:06:27.472Z,0.47
2022-09-30T09:11:44.091Z,0.30
2022-09-30T09:16:58.754Z,0.10
2022-09-30T09:27:20.106Z,0.10
2022-09-30T09:32:23.765Z,0.20
2022-09-30T09:37:55.103Z,0.13
2022-09-30T09:43:12.233Z,0.00
2022-09-30T09:48:17.521Z,0.10
2022-09-30T09:53:45.409Z,0.10
2022-09-30T09:59:07.541Z,0.08
2022-09-30T10:04:17.861Z,0.10
2022-09-30T10:09:32.133Z,0.10
2022-09-30T10:14:45.897Z,0.00
2022-09-30T10:19:53.243Z,0.10
2022-09-30T10:25:17.964Z,0.00
2022-09-30T10:30:44.406Z,0.10
2022-09-30T10:35:56.172Z,0.20
2022-09-30T10:41:01.855Z,0.00
2022-09-30T10:46:25.218Z,0.10
2022-09-30T10:51:33.818Z,0.17
2022-09-30T10:56:46.889Z,0.10
2022-09-30T11:01:57.528Z,0.10
2022-09-30T11:07:12.877Z,0.20
2022-09-30T11:12:24.389Z,0.30
2022-09-30T11:17:34.023Z,0.30
2022-09-30T11:22:44.629Z,0.20
2022-09-30T11:28:15.126Z,0.17
2022-09-30T11:33:33.012Z,0.17
2022-09-30T11:38:56.234Z,0.20
2022-09-30T11:44:15.717Z,0.20
2022-09-30T11:49:35.215Z,0.28
2022-09-30T11:54:54.360Z,0.30
2022-09-30T12:00:03.717Z,0.32
2022-09-30T12:05:20.683Z,0.30
2022-09-30T12:10:28.755Z,0.30
2022-09-30T12:15:34.997Z,0.20
2022-09-30T12:20:43.243Z,0.15
2022-09-30T12:25:51.703Z,0.30
2022-09-30T12:31:08.496Z,0.13
2022-09-30T12:36:40.042Z,0.20
2022-09-30T12:42:03.476Z,0.20
2022-09-30T12:47:28.422Z,0.30
2022-09-30T12:57:42.685Z,0.10
2022-09-30T13:02:50.623Z,0.00
2022-09-30T13:08:11.369Z,0.10
2022-09-30T13:13:23.838Z,0.10
2022-09-30T13:19:10.468Z,0.03
2022-09-30T13:24:17.629Z,0.20
2022-09-30T13:29:39.922Z,0.20
2022-09-30T13:34:56.150Z,0.20
2022-09-30T13:40:04.868Z,0.10
2022-09-30T13:45:16.267Z,0.10
2022-09-30T13:50:22.192Z,0.10
2022-09-30T13:55:30.644Z,0.17
2022-09-30T14:00:47.767Z,0.10
2022-09-30T14:06:02.956Z,0.10
2022-09-30T14:11:25.020Z,0.10
2022-09-30T14:16:58.285Z,0.20
2022-09-30T14:22:05.667Z,0.00
2022-09-30T14:27:43.182Z,0.10
2022-09-30T14:32:49.389Z,0.10
2022-09-30T14:37:56.225Z,0.10
2022-09-30T14:43:04.987Z,0.17
2022-09-30T14:48:12.143Z,0.10
2022-09-30T14:53:26.441Z,0.05
2022-09-30T14:58:33.268Z,0.30
2022-09-30T15:03:39.467Z,0.20
2022-09-30T15:08:43.286Z,0.10
2022-09-30T15:13:51.786Z,0.13
2022-09-30T15:18:56.268Z,0.10
2022-09-30T15:24:02.815Z,0.10
2022-09-30T15:29:07.900Z,0.20
2022-09-30T15:34:20.407Z,0.30
2022-09-30T15:39:50.538Z,0.10
2022-09-30T15:44:56.766Z,0.20
2022-09-30T15:50:00.490Z,0.30
2022-09-30T15:55:29.454Z,0.30
2022-09-30T16:00:38.070Z,0.20
2022-09-30T16:05:42.041Z,0.45
2022-09-30T16:10:50.815Z,0.30
2022-09-30T16:15:57.590Z,0.35
2022-09-30T16:21:03.151Z,0.20
2022-09-30T16:26:24.374Z,0.30
2022-09-30T16:31:30.830Z,0.20
2022-09-30T16:36:34.852Z,0.45
2022-09-30T16:41:38.701Z,0.22
2022-09-30T16:46:43.580Z,0.30
2022-09-30T16:51:47.383Z,0.20
2022-09-30T16:56:50.909Z,0.50
2022-09-30T17:01:55.869Z,0.40
2022-09-30T17:06:59.888Z,0.50
2022-09-30T17:12:03.394Z,0.30
2022-09-30T17:17:13.068Z,0.40
2022-09-30T17:22:17.061Z,0.50
2022-09-30T17:27:20.598Z,0.40
2022-09-30T17:32:25.559Z,0.52
2022-09-30T17:37:31.031Z,0.17
2022-09-30T17:43:04.087Z,0.28
2022-09-30T17:48:09.765Z,0.10
2022-09-30T17:53:14.141Z,0.40
2022-09-30T17:58:19.381Z,0.40
2022-09-30T18:03:24.617Z,0.30
2022-09-30T18:08:28.547Z,0.52
2022-09-30T18:13:32.394Z,0.30
2022-09-30T18:18:37.426Z,0.43
2022-09-30T18:23:40.963Z,0.47
2022-09-30T18:28:44.723Z,0.50
2022-09-30T18:33:51.776Z,0.30
2022-09-30T18:38:58.416Z,0.30
2022-09-30T18:44:02.999Z,0.30
2022-09-30T18:49:08.126Z,0.30
2022-09-30T18:54:16.193Z,0.25
2022-09-30T18:59:23.313Z,0.30
2022-09-30T19:04:29.513Z,0.30
2022-09-30T19:09:33.088Z,0.40
2022-09-30T19:14:36.766Z,0.20
2022-09-30T19:19:43.229Z,0.27
2022-09-30T19:24:46.888Z,0.22
2022-09-30T19:29:54.012Z,0.10
2022-09-30T19:35:06.056Z,0.08
2022-09-30T19:40:20.766Z,0.28
2022-09-30T19:45:26.416Z,0.50
2022-09-30T19:50:31.369Z,0.37
2022-09-30T19:55:48.259Z,0.40
2022-09-30T20:00:56.294Z,0.28
2022-09-30T20:06:03.719Z,0.37
2022-09-30T20:11:10.344Z,0.45
2022-09-30T20:16:16.048Z,0.15
2022-09-30T20:21:20.952Z,0.60
2022-09-30T20:26:24.557Z,0.20
2022-09-30T20:31:29.110Z,0.20
2022-09-30T20:41:40.038Z,0.35
2022-09-30T20:46:43.958Z,0.30
2022-09-30T20:51:49.105Z,0.40
2022-09-30T20:57:06.804Z,0.30
2022-09-30T21:02:14.203Z,0.20
2022-09-30T21:07:19.343Z,0.13
2022-09-30T21:12:23.072Z,0.35
2022-09-30T21:17:28.074Z,0.10
2022-09-30T21:22:32.966Z,0.15
2022-09-30T21:27:36.516Z,0.20
2022-09-30T21:32:43.139Z,0.15
2022-09-30T21:37:50.147Z,0.13
2022-09-30T21:42:53.683Z,0.10
2022-09-30T21:48:02.791Z,0.20
2022-09-30T21:53:07.687Z,0.10
2022-09-30T21:58:11.235Z,0.30
2022-09-30T22:03:15.343Z,0.37
2022-09-30T22:08:21.042Z,0.05
2022-09-30T22:13:25.132Z,0.10
2022-09-30T22:18:31.446Z,0.20
2022-09-30T22:23:36.409Z,0.20
2022-09-30T22:28:40.950Z,0.10
